sensor_id;sensor_type;location;lat;lon;timestamp;P1;durP1;ratioP1;P2;durP2;ratioP2
67051;SDS011;53957;47.222;18.670;2022-10-19T05:25:11;16.73;;;11.75;;
67051;SDS011;53957;47.222;18.670;2022-10-19T05:28:14;18.37;;;11.82;;
67051;SDS011;53957;47.222;18.670;2022-10-19T05:31:23;17.00;;;12.30;;
67051;SDS011;53957;47.222;18.670;2022-10-19T05:34:28;18.52;;;13.48;;
67051;SDS011;53957;47.222;18.670;2022-10-19T05:37:33;25.23;;;15.88;;
67051;SDS011;53957;47.222;18.670;2022-10-19T05:40:36;20.75;;;14.35;;
67051;SDS011;53957;47.222;18.670;2022-10-19T05:43:40;19.83;;;14.80;;
67051;SDS011;53957;47.222;18.670;2022-10-19T05:46:44;19.20;;;13.90;;
67051;SDS011;53957;47.222;18.670;2022-10-19T05:49:47;20.85;;;14.70;;
67051;SDS011;53957;47.222;18.670;2022-10-19T05:52:53;19.40;;;12.73;;
67051;SDS011;53957;47.222;18.670;2022-10-19T05:55:58;95.43;;;57.78;;
67051;SDS011;53957;47.222;18.670;2022-10-19T05:59:02;29.12;;;21.27;;
67051;SDS011;53957;47.222;18.670;2022-10-19T06:02:09;25.50;;;15.75;;
67051;SDS011;53957;47.222;18.670;2022-10-19T06:05:15;25.75;;;15.25;;
67051;SDS011;53957;47.222;18.670;2022-10-19T06:08:19;18.02;;;13.38;;
67051;SDS011;53957;47.222;18.670;2022-10-19T06:11:43;21.55;;;14.32;;
67051;SDS011;53957;47.222;18.670;2022-10-19T06:18:03;23.30;;;14.65;;
67051;SDS011;53957;47.222;18.670;2022-10-19T06:21:08;20.23;;;14.13;;
67051;SDS011;53957;47.222;18.670;2022-10-19T06:24:12;18.23;;;13.55;;
67051;SDS011;53957;47.222;18.670;2022-10-19T06:27:18;21.40;;;14.95;;
67051;SDS011;53957;47.222;18.670;2022-10-19T06:30:23;25.98;;;18.45;;
67051;SDS011;53957;47.222;18.670;2022-10-19T06:33:26;24.40;;;14.98;;
67051;SDS011;53957;47.222;18.670;2022-10-19T06:36:32;19.65;;;14.27;;
67051;SDS011;53957;47.222;18.670;2022-10-19T06:39:35;20.33;;;15.00;;
67051;SDS011;53957;47.222;18.670;2022-10-19T06:42:38;20.23;;;13.13;;
67051;SDS011;53957;47.222;18.670;2022-10-19T06:45:42;17.50;;;14.32;;
67051;SDS011;53957;47.222;18.670;2022-10-19T06:48:59;22.75;;;14.55;;
67051;SDS011;53957;47.222;18.670;2022-10-19T06:52:22;18.33;;;13.23;;
67051;SDS011;53957;47.222;18.670;2022-10-19T06:55:46;17.92;;;13.18;;
67051;SDS011;53957;47.222;18.670;2022-10-19T06:58:50;15.73;;;12.07;;
67051;SDS011;53957;47.222;18.670;2022-10-19T07:02:13;18.67;;;12.73;;
67051;SDS011;53957;47.222;18.670;2022-10-19T07:05:16;16.15;;;11.07;;
67051;SDS011;53957;47.222;18.670;2022-10-19T07:08:20;13.80;;;11.02;;
67051;SDS011;53957;47.222;18.670;2022-10-19T07:11:23;17.27;;;10.50;;
67051;SDS011;53957;47.222;18.670;2022-10-19T07:14:26;15.70;;;10.88;;
67051;SDS011;53957;47.222;18.670;2022-10-19T07:20:57;12.63;;;9.15;;
67051;SDS011;53957;47.222;18.670;2022-10-19T07:24:20;10.27;;;8.57;;
67051;SDS011;53957;47.222;18.670;2022-10-19T07:27:33;10.70;;;7.97;;
67051;SDS011;53957;47.222;18.670;2022-10-19T07:31:03;11.32;;;8.38;;
67051;SDS011;53957;47.222;18.670;2022-10-19T07:34:27;10.57;;;7.33;;
67051;SDS011;53957;47.222;18.670;2022-10-19T07:37:30;14.32;;;7.45;;
67051;SDS011;53957;47.222;18.670;2022-10-19T07:40:36;8.00;;;6.70;;
67051;SDS011;53957;47.222;18.670;2022-10-19T07:43:39;7.35;;;5.90;;
67051;SDS011;53957;47.222;18.670;2022-10-19T07:46:44;6.68;;;5.97;;
67051;SDS011;53957;47.222;18.670;2022-10-19T07:49:46;6.40;;;5.40;;
67051;SDS011;53957;47.222;18.670;2022-10-19T07:52:52;8.05;;;5.45;;
67051;SDS011;53957;47.222;18.670;2022-10-19T07:56:01;6.18;;;5.53;;
67051;SDS011;53957;47.222;18.670;2022-10-19T08:10:45;5.62;;;4.50;;
67051;SDS011;53957;47.222;18.670;2022-10-19T08:14:25;5.87;;;4.97;;
67051;SDS011;53957;47.222;18.670;2022-10-19T08:17:28;5.07;;;4.20;;
67051;SDS011;53957;47.222;18.670;2022-10-19T08:24:44;6.10;;;4.50;;
67051;SDS011;53957;47.222;18.670;2022-10-19T08:27:47;7.32;;;3.85;;
67051;SDS011;53957;47.222;18.670;2022-10-19T08:30:50;6.05;;;3.78;;
67051;SDS011;53957;47.222;18.670;2022-10-19T08:33:53;5.22;;;3.80;;
67051;SDS011;53957;47.222;18.670;2022-10-19T08:36:56;4.18;;;3.33;;
67051;SDS011;53957;47.222;18.670;2022-10-19T08:39:59;7.70;;;3.37;;
67051;SDS011;53957;47.222;18.670;2022-10-19T08:43:17;3.47;;;3.17;;
67051;SDS011;53957;47.222;18.670;2022-10-19T08:49:57;5.68;;;2.80;;
67051;SDS011;53957;47.222;18.670;2022-10-19T08:53:05;2.60;;;2.40;;
67051;SDS011;53957;47.222;18.670;2022-10-19T08:59:53;3.62;;;2.58;;
67051;SDS011;53957;47.222;18.670;2022-10-19T09:10:28;2.15;;;2.05;;
67051;SDS011;53957;47.222;18.670;2022-10-19T09:13:41;1.90;;;1.80;;
67051;SDS011;53957;47.222;18.670;2022-10-19T09:17:25;1.60;;;1.50;;
67051;SDS011;53957;47.222;18.670;2022-10-19T09:20:36;5.40;;;2.05;;
67051;SDS011;53957;47.222;18.670;2022-10-19T09:28:30;4.28;;;2.25;;
67051;SDS011;53957;47.222;18.670;2022-10-19T09:31:46;2.17;;;1.92;;
67051;SDS011;53957;47.222;18.670;2022-10-19T09:35:03;1.92;;;1.65;;
67051;SDS011;53957;47.222;18.670;2022-10-19T09:38:30;1.77;;;1.67;;
67051;SDS011;53957;47.222;18.670;2022-10-19T09:41:55;1.85;;;1.73;;
67051;SDS011;53957;47.222;18.670;2022-10-19T09:45:05;2.30;;;2.10;;
67051;SDS011;53957;47.222;18.670;2022-10-19T09:51:40;2.33;;;1.83;;
67051;SDS011;53957;47.222;18.670;2022-10-19T09:54:58;1.65;;;1.55;;
67051;SDS011;53957;47.222;18.670;2022-10-19T10:01:31;1.80;;;1.70;;
67051;SDS011;53957;47.222;18.670;2022-10-19T10:08:19;15.80;;;2.08;;
67051;SDS011;53957;47.222;18.670;2022-10-19T10:11:43;1.87;;;1.60;;
67051;SDS011;53957;47.222;18.670;2022-10-19T10:14:53;2.30;;;2.05;;
67051;SDS011;53957;47.222;18.670;2022-10-19T10:17:58;1.83;;;1.57;;
67051;SDS011;53957;47.222;18.670;2022-10-19T10:21:13;5.10;;;1.77;;
67051;SDS011;53957;47.222;18.670;2022-10-19T10:27:54;1.00;;;1.00;;
67051;SDS011;53957;47.222;18.670;2022-10-19T10:31:01;1.20;;;1.10;;
67051;SDS011;53957;47.222;18.670;2022-10-19T10:34:10;4.40;;;1.15;;
67051;SDS011;53957;47.222;18.670;2022-10-19T10:37:39;1.60;;;1.37;;
67051;SDS011;53957;47.222;18.670;2022-10-19T10:40:55;1.80;;;1.60;;
67051;SDS011;53957;47.222;18.670;2022-10-19T10:44:06;3.37;;;2.23;;
67051;SDS011;53957;47.222;18.670;2022-10-19T10:47:18;1.10;;;1.10;;
67051;SDS011;53957;47.222;18.670;2022-10-19T10:50:25;1.12;;;1.05;;
67051;SDS011;53957;47.222;18.670;2022-10-19T10:53:37;0.93;;;0.90;;
67051;SDS011;53957;47.222;18.670;2022-10-19T10:56:42;1.02;;;1.02;;
67051;SDS011;53957;47.222;18.670;2022-10-19T11:06:26;2.08;;;1.20;;
67051;SDS011;53957;47.222;18.670;2022-10-19T11:09:37;1.23;;;1.12;;
67051;SDS011;53957;47.222;18.670;2022-10-19T11:12:45;1.37;;;1.10;;
67051;SDS011;53957;47.222;18.670;2022-10-19T11:16:18;2.17;;;1.40;;
67051;SDS011;53957;47.222;18.670;2022-10-19T11:26:18;1.50;;;1.40;;
67051;SDS011;53957;47.222;18.670;2022-10-19T11:37:34;1.25;;;1.25;;
67051;SDS011;53957;47.222;18.670;2022-10-19T11:51:29;1.10;;;1.10;;
67051;SDS011;53957;47.222;18.670;2022-10-19T11:55:19;2.97;;;1.10;;
67051;SDS011;53957;47.222;18.670;2022-10-19T12:08:56;1.12;;;1.12;;
67051;SDS011;53957;47.222;18.670;2022-10-19T12:12:30;2.37;;;1.40;;
67051;SDS011;53957;47.222;18.670;2022-10-19T12:15:46;3.10;;;1.40;;
67051;SDS011;53957;47.222;18.670;2022-10-19T12:18:56;2.20;;;1.40;;
67051;SDS011;53957;47.222;18.670;2022-10-19T12:22:02;5.35;;;1.50;;
67051;SDS011;53957;47.222;18.670;2022-10-19T12:25:10;1.23;;;1.23;;
67051;SDS011;53957;47.222;18.670;2022-10-19T12:28:32;5.22;;;1.33;;
67051;SDS011;53957;47.222;18.670;2022-10-19T12:31:39;2.80;;;1.30;;
67051;SDS011;53957;47.222;18.670;2022-10-19T12:34:55;4.85;;;1.52;;
67051;SDS011;53957;47.222;18.670;2022-10-19T12:38:08;2.00;;;1.50;;
67051;SDS011;53957;47.222;18.670;2022-10-19T12:51:16;6.53;;;2.28;;
67051;SDS011;53957;47.222;18.670;2022-10-19T12:54:23;3.17;;;1.75;;
67051;SDS011;53957;47.222;18.670;2022-10-19T12:57:28;8.60;;;2.20;;
67051;SDS011;53957;47.222;18.670;2022-10-19T13:00:33;2.42;;;2.22;;
67051;SDS011;53957;47.222;18.670;2022-10-19T13:03:39;3.12;;;2.25;;
67051;SDS011;53957;47.222;18.670;2022-10-19T13:07:18;3.65;;;1.90;;
67051;SDS011;53957;47.222;18.670;2022-10-19T13:10:40;2.87;;;1.98;;
67051;SDS011;53957;47.222;18.670;2022-10-19T13:17:50;3.30;;;1.92;;
67051;SDS011;53957;47.222;18.670;2022-10-19T13:21:41;29.83;;;3.67;;
67051;SDS011;53957;47.222;18.670;2022-10-19T13:28:57;2.65;;;2.15;;
67051;SDS011;53957;47.222;18.670;2022-10-19T13:44:30;2.25;;;2.05;;
67051;SDS011;53957;47.222;18.670;2022-10-19T13:47:47;2.78;;;2.17;;
67051;SDS011;53957;47.222;18.670;2022-10-19T13:51:30;2.33;;;2.12;;
67051;SDS011;53957;47.222;18.670;2022-10-19T14:07:24;3.00;;;2.40;;
67051;SDS011;53957;47.222;18.670;2022-10-19T14:10:35;4.28;;;2.25;;
67051;SDS011;53957;47.222;18.670;2022-10-19T14:14:36;3.78;;;2.50;;
67051;SDS011;53957;47.222;18.670;2022-10-19T14:17:29;5.60;;;2.40;;
67051;SDS011;53957;47.222;18.670;2022-10-19T14:20:37;7.00;;;2.65;;
67051;SDS011;53957;47.222;18.670;2022-10-19T14:23:40;2.97;;;2.70;;
67051;SDS011;53957;47.222;18.670;2022-10-19T14:26:44;5.72;;;2.42;;
67051;SDS011;53957;47.222;18.670;2022-10-19T14:29:48;4.95;;;2.60;;
67051;SDS011;53957;47.222;18.670;2022-10-19T14:32:54;2.90;;;2.60;;
67051;SDS011;53957;47.222;18.670;2022-10-19T14:36:04;8.15;;;2.53;;
67051;SDS011;53957;47.222;18.670;2022-10-19T14:43:40;2.78;;;2.58;;
67051;SDS011;53957;47.222;18.670;2022-10-19T14:54:44;2.80;;;2.58;;
67051;SDS011;53957;47.222;18.670;2022-10-19T14:57:50;4.15;;;2.85;;
67051;SDS011;53957;47.222;18.670;2022-10-19T15:08:15;3.53;;;2.78;;
67051;SDS011;53957;47.222;18.670;2022-10-19T15:11:28;2.83;;;2.50;;
67051;SDS011;53957;47.222;18.670;2022-10-19T15:14:54;3.17;;;2.67;;
67051;SDS011;53957;47.222;18.670;2022-10-19T15:18:12;2.70;;;2.50;;
67051;SDS011;53957;47.222;18.670;2022-10-19T15:25:23;3.00;;;2.40;;
67051;SDS011;53957;47.222;18.670;2022-10-19T15:28:33;6.95;;;2.90;;
67051;SDS011;53957;47.222;18.670;2022-10-19T15:31:43;7.35;;;3.78;;
67051;SDS011;53957;47.222;18.670;2022-10-19T15:34:48;2.95;;;2.60;;
67051;SDS011;53957;47.222;18.670;2022-10-19T15:37:57;4.70;;;2.70;;
67051;SDS011;53957;47.222;18.670;2022-10-19T15:41:18;6.35;;;2.78;;
67051;SDS011;53957;47.222;18.670;2022-10-19T15:44:33;8.07;;;3.20;;
67051;SDS011;53957;47.222;18.670;2022-10-19T15:47:46;4.00;;;2.70;;
67051;SDS011;53957;47.222;18.670;2022-10-19T15:54:27;4.10;;;3.03;;
67051;SDS011;53957;47.222;18.670;2022-10-19T15:57:34;6.00;;;3.08;;
67051;SDS011;53957;47.222;18.670;2022-10-19T16:00:39;3.43;;;2.97;;
67051;SDS011;53957;47.222;18.670;2022-10-19T16:03:43;4.95;;;4.37;;
67051;SDS011;53957;47.222;18.670;2022-10-19T16:06:47;13.35;;;7.37;;
67051;SDS011;53957;47.222;18.670;2022-10-19T16:09:50;8.65;;;4.22;;
67051;SDS011;53957;47.222;18.670;2022-10-19T16:12:54;4.53;;;3.53;;
67051;SDS011;53957;47.222;18.670;2022-10-19T16:16:02;4.85;;;3.37;;
67051;SDS011;53957;47.222;18.670;2022-10-19T16:19:13;3.12;;;2.83;;
67051;SDS011;53957;47.222;18.670;2022-10-19T16:22:17;5.45;;;3.20;;
67051;SDS011;53957;47.222;18.670;2022-10-19T16:25:20;4.28;;;3.35;;
67051;SDS011;53957;47.222;18.670;2022-10-19T16:28:23;7.37;;;4.05;;
67051;SDS011;53957;47.222;18.670;2022-10-19T16:31:26;5.47;;;4.62;;
67051;SDS011;53957;47.222;18.670;2022-10-19T16:34:30;4.45;;;4.03;;
67051;SDS011;53957;47.222;18.670;2022-10-19T16:37:33;4.95;;;4.00;;
67051;SDS011;53957;47.222;18.670;2022-10-19T16:40:38;5.32;;;3.40;;
67051;SDS011;53957;47.222;18.670;2022-10-19T16:43:42;7.43;;;3.92;;
67051;SDS011;53957;47.222;18.670;2022-10-19T16:46:45;4.30;;;3.87;;
67051;SDS011;53957;47.222;18.670;2022-10-19T16:49:52;5.90;;;3.33;;
67051;SDS011;53957;47.222;18.670;2022-10-19T16:53:04;5.32;;;3.28;;
67051;SDS011;53957;47.222;18.670;2022-10-19T16:56:12;9.70;;;3.78;;
67051;SDS011;53957;47.222;18.670;2022-10-19T16:59:16;10.00;;;3.15;;
67051;SDS011;53957;47.222;18.670;2022-10-19T17:02:20;3.37;;;3.03;;
67051;SDS011;53957;47.222;18.670;2022-10-19T17:05:24;3.92;;;3.05;;
67051;SDS011;53957;47.222;18.670;2022-10-19T17:08:28;3.45;;;3.00;;
67051;SDS011;53957;47.222;18.670;2022-10-19T17:11:46;3.20;;;2.90;;
67051;SDS011;53957;47.222;18.670;2022-10-19T17:14:50;4.20;;;3.72;;
67051;SDS011;53957;47.222;18.670;2022-10-19T17:17:53;4.18;;;3.40;;
67051;SDS011;53957;47.222;18.670;2022-10-19T17:21:02;4.87;;;3.45;;
67051;SDS011;53957;47.222;18.670;2022-10-19T17:24:14;5.35;;;3.78;;
67051;SDS011;53957;47.222;18.670;2022-10-19T17:27:24;5.57;;;4.35;;
67051;SDS011;53957;47.222;18.670;2022-10-19T17:30:28;7.53;;;5.18;;
67051;SDS011;53957;47.222;18.670;2022-10-19T17:33:34;6.35;;;5.22;;
67051;SDS011;53957;47.222;18.670;2022-10-19T17:36:39;9.15;;;5.03;;
67051;SDS011;53957;47.222;18.670;2022-10-19T17:39:49;10.23;;;4.60;;
67051;SDS011;53957;47.222;18.670;2022-10-19T17:42:53;5.87;;;4.03;;
67051;SDS011;53957;47.222;18.670;2022-10-19T17:45:57;5.28;;;4.40;;
67051;SDS011;53957;47.222;18.670;2022-10-19T17:49:06;4.35;;;3.25;;
67051;SDS011;53957;47.222;18.670;2022-10-19T17:52:09;4.12;;;2.80;;
67051;SDS011;53957;47.222;18.670;2022-10-19T17:55:13;3.78;;;2.85;;
67051;SDS011;53957;47.222;18.670;2022-10-19T17:58:16;5.10;;;2.42;;
67051;SDS011;53957;47.222;18.670;2022-10-19T18:01:20;3.78;;;3.05;;
67051;SDS011;53957;47.222;18.670;2022-10-19T18:04:24;3.22;;;2.50;;
67051;SDS011;53957;47.222;18.670;2022-10-19T18:07:27;2.95;;;2.70;;
67051;SDS011;53957;47.222;18.670;2022-10-19T18:10:33;3.87;;;2.83;;
67051;SDS011;53957;47.222;18.670;2022-10-19T18:13:37;3.45;;;2.40;;
67051;SDS011;53957;47.222;18.670;2022-10-19T18:16:45;4.28;;;2.70;;
67051;SDS011;53957;47.222;18.670;2022-10-19T18:19:48;3.03;;;2.70;;
67051;SDS011;53957;47.222;18.670;2022-10-19T18:22:52;5.32;;;2.50;;
67051;SDS011;53957;47.222;18.670;2022-10-19T18:25:55;3.53;;;2.78;;
67051;SDS011;53957;47.222;18.670;2022-10-19T18:29:09;4.82;;;2.87;;
67051;SDS011;53957;47.222;18.670;2022-10-19T18:32:14;3.25;;;2.72;;
67051;SDS011;53957;47.222;18.670;2022-10-19T18:35:18;4.25;;;2.80;;
67051;SDS011;53957;47.222;18.670;2022-10-19T18:38:21;3.00;;;2.75;;
67051;SDS011;53957;47.222;18.670;2022-10-19T18:41:24;4.00;;;2.87;;
67051;SDS011;53957;47.222;18.670;2022-10-19T18:44:29;3.08;;;2.85;;
67051;SDS011;53957;47.222;18.670;2022-10-19T18:47:35;2.75;;;2.55;;
67051;SDS011;53957;47.222;18.670;2022-10-19T18:50:39;3.85;;;2.60;;
67051;SDS011;53957;47.222;18.670;2022-10-19T18:53:43;5.60;;;2.85;;
67051;SDS011;53957;47.222;18.670;2022-10-19T18:56:48;6.00;;;2.83;;
67051;SDS011;53957;47.222;18.670;2022-10-19T18:59:53;5.28;;;2.75;;
67051;SDS011;53957;47.222;18.670;2022-10-19T19:02:57;4.22;;;2.80;;
67051;SDS011;53957;47.222;18.670;2022-10-19T19:06:00;6.70;;;2.40;;
67051;SDS011;53957;47.222;18.670;2022-10-19T19:09:06;2.90;;;2.70;;
67051;SDS011;53957;47.222;18.670;2022-10-19T19:12:11;6.07;;;2.80;;
67051;SDS011;53957;47.222;18.670;2022-10-19T19:15:14;2.87;;;2.37;;
67051;SDS011;53957;47.222;18.670;2022-10-19T19:18:17;2.40;;;2.20;;
67051;SDS011;53957;47.222;18.670;2022-10-19T19:21:26;4.20;;;2.30;;
67051;SDS011;53957;47.222;18.670;2022-10-19T19:24:31;3.55;;;2.45;;
67051;SDS011;53957;47.222;18.670;2022-10-19T19:27:35;2.30;;;2.15;;
67051;SDS011;53957;47.222;18.670;2022-10-19T19:30:45;4.05;;;2.62;;
67051;SDS011;53957;47.222;18.670;2022-10-19T19:33:49;2.53;;;2.33;;
67051;SDS011;53957;47.222;18.670;2022-10-19T19:36:52;3.78;;;2.47;;
67051;SDS011;53957;47.222;18.670;2022-10-19T19:39:56;3.47;;;2.10;;
67051;SDS011;53957;47.222;18.670;2022-10-19T19:43:00;4.05;;;2.22;;
67051;SDS011;53957;47.222;18.670;2022-10-19T19:46:04;4.28;;;2.35;;
67051;SDS011;53957;47.222;18.670;2022-10-19T19:49:11;3.25;;;2.58;;
67051;SDS011;53957;47.222;18.670;2022-10-19T19:52:15;11.12;;;2.62;;
67051;SDS011;53957;47.222;18.670;2022-10-19T19:55:19;3.22;;;2.10;;
67051;SDS011;53957;47.222;18.670;2022-10-19T19:58:22;15.95;;;2.50;;
67051;SDS011;53957;47.222;18.670;2022-10-19T20:01:25;4.62;;;2.35;;
67051;SDS011;53957;47.222;18.670;2022-10-19T20:04:29;2.87;;;2.08;;
67051;SDS011;53957;47.222;18.670;2022-10-19T20:07:32;3.33;;;2.12;;
67051;SDS011;53957;47.222;18.670;2022-10-19T20:10:36;4.22;;;2.00;;
67051;SDS011;53957;47.222;18.670;2022-10-19T20:13:42;2.33;;;2.20;;
67051;SDS011;53957;47.222;18.670;2022-10-19T20:16:47;2.37;;;2.12;;
67051;SDS011;53957;47.222;18.670;2022-10-19T20:19:50;3.08;;;1.92;;
67051;SDS011;53957;47.222;18.670;2022-10-19T20:22:53;4.12;;;2.10;;
67051;SDS011;53957;47.222;18.670;2022-10-19T20:25:56;2.03;;;1.73;;
67051;SDS011;53957;47.222;18.670;2022-10-19T20:29:00;2.92;;;2.30;;
67051;SDS011;53957;47.222;18.670;2022-10-19T20:32:04;3.30;;;2.60;;
67051;SDS011;53957;47.222;18.670;2022-10-19T20:35:07;3.72;;;1.92;;
67051;SDS011;53957;47.222;18.670;2022-10-19T20:38:10;2.65;;;1.80;;
67051;SDS011;53957;47.222;18.670;2022-10-19T20:41:14;3.00;;;1.90;;
67051;SDS011;53957;47.222;18.670;2022-10-19T20:44:20;3.87;;;1.92;;
67051;SDS011;53957;47.222;18.670;2022-10-19T20:47:24;3.92;;;2.33;;
67051;SDS011;53957;47.222;18.670;2022-10-19T20:50:28;2.15;;;1.90;;
67051;SDS011;53957;47.222;18.670;2022-10-19T20:53:31;2.00;;;1.90;;
67051;SDS011;53957;47.222;18.670;2022-10-19T20:56:34;3.10;;;2.20;;
67051;SDS011;53957;47.222;18.670;2022-10-19T20:59:40;3.00;;;1.75;;
67051;SDS011;53957;47.222;18.670;2022-10-19T21:02:45;2.28;;;2.08;;
67051;SDS011;53957;47.222;18.670;2022-10-19T21:05:48;3.95;;;2.12;;
67051;SDS011;53957;47.222;18.670;2022-10-19T21:08:50;4.80;;;1.90;;
67051;SDS011;53957;47.222;18.670;2022-10-19T21:11:54;3.12;;;2.00;;
67051;SDS011;53957;47.222;18.670;2022-10-19T21:14:56;2.40;;;1.98;;
67051;SDS011;53957;47.222;18.670;2022-10-19T21:17:59;3.10;;;2.42;;
67051;SDS011;53957;47.222;18.670;2022-10-19T21:21:18;2.53;;;1.90;;
67051;SDS011;53957;47.222;18.670;2022-10-19T21:24:24;2.72;;;2.00;;
67051;SDS011;53957;47.222;18.670;2022-10-19T21:27:28;4.45;;;1.95;;
67051;SDS011;53957;47.222;18.670;2022-10-19T21:30:37;2.10;;;1.90;;
67051;SDS011;53957;47.222;18.670;2022-10-19T21:33:40;3.75;;;2.00;;
67051;SDS011;53957;47.222;18.670;2022-10-19T21:36:43;1.98;;;1.87;;
67051;SDS011;53957;47.222;18.670;2022-10-19T21:39:46;1.80;;;1.65;;
67051;SDS011;53957;47.222;18.670;2022-10-19T21:42:49;1.80;;;1.67;;
67051;SDS011;53957;47.222;18.670;2022-10-19T21:45:51;2.03;;;1.90;;
67051;SDS011;53957;47.222;18.670;2022-10-19T21:48:55;2.05;;;1.95;;
67051;SDS011;53957;47.222;18.670;2022-10-19T21:51:57;2.20;;;2.00;;
67051;SDS011;53957;47.222;18.670;2022-10-19T21:55:00;2.35;;;2.15;;
67051;SDS011;53957;47.222;18.670;2022-10-19T21:58:03;2.33;;;1.87;;
67051;SDS011;53957;47.222;18.670;2022-10-19T22:01:07;1.77;;;1.67;;
67051;SDS011;53957;47.222;18.670;2022-10-19T22:04:14;1.77;;;1.67;;
67051;SDS011;53957;47.222;18.670;2022-10-19T22:07:18;6.65;;;2.10;;
67051;SDS011;53957;47.222;18.670;2022-10-19T22:10:21;3.47;;;2.10;;
67051;SDS011;53957;47.222;18.670;2022-10-19T22:13:24;3.35;;;2.12;;
67051;SDS011;53957;47.222;18.670;2022-10-19T22:16:27;1.90;;;1.80;;
67051;SDS011;53957;47.222;18.670;2022-10-19T22:19:31;3.60;;;2.30;;
67051;SDS011;53957;47.222;18.670;2022-10-19T22:22:33;3.47;;;2.22;;
67051;SDS011;53957;47.222;18.670;2022-10-19T22:25:36;3.15;;;2.10;;
67051;SDS011;53957;47.222;18.670;2022-10-19T22:28:39;3.70;;;2.33;;
67051;SDS011;53957;47.222;18.670;2022-10-19T22:31:42;2.75;;;2.40;;
67051;SDS011;53957;47.222;18.670;2022-10-19T22:34:45;2.05;;;1.95;;
67051;SDS011;53957;47.222;18.670;2022-10-19T22:37:48;2.08;;;1.98;;
67051;SDS011;53957;47.222;18.670;2022-10-19T22:45:08;3.50;;;1.62;;
67051;SDS011;53957;47.222;18.670;2022-10-19T22:48:11;2.53;;;2.33;;
67051;SDS011;53957;47.222;18.670;2022-10-19T22:51:14;7.95;;;2.20;;
67051;SDS011;53957;47.222;18.670;2022-10-19T22:54:17;1.98;;;1.83;;
67051;SDS011;53957;47.222;18.670;2022-10-19T22:57:20;2.40;;;2.20;;
67051;SDS011;53957;47.222;18.670;2022-10-19T23:00:23;3.95;;;2.05;;
67051;SDS011;53957;47.222;18.670;2022-10-19T23:03:26;1.70;;;1.60;;
67051;SDS011;53957;47.222;18.670;2022-10-19T23:06:29;7.07;;;2.00;;
67051;SDS011;53957;47.222;18.670;2022-10-19T23:09:32;2.28;;;2.08;;
67051;SDS011;53957;47.222;18.670;2022-10-19T23:12:35;1.65;;;1.55;;
67051;SDS011;53957;47.222;18.670;2022-10-19T23:15:37;3.17;;;2.20;;
67051;SDS011;53957;47.222;18.670;2022-10-19T23:18:45;2.17;;;2.08;;
67051;SDS011;53957;47.222;18.670;2022-10-19T23:21:48;2.30;;;1.87;;
67051;SDS011;53957;47.222;18.670;2022-10-19T23:24:51;4.82;;;2.10;;
67051;SDS011;53957;47.222;18.670;2022-10-19T23:27:53;2.92;;;2.08;;
67051;SDS011;53957;47.222;18.670;2022-10-19T23:31:01;1.80;;;1.70;;
67051;SDS011;53957;47.222;18.670;2022-10-19T23:34:08;1.95;;;1.85;;
67051;SDS011;53957;47.222;18.670;2022-10-19T23:37:11;1.90;;;1.77;;
67051;SDS011;53957;47.222;18.670;2022-10-19T23:40:20;5.68;;;1.70;;
67051;SDS011;53957;47.222;18.670;2022-10-19T23:43:23;2.22;;;2.03;;
67051;SDS011;53957;47.222;18.670;2022-10-19T23:46:25;1.75;;;1.65;;
67051;SDS011;53957;47.222;18.670;2022-10-19T23:49:28;2.58;;;2.05;;
